createdAt,value
2018-05-17T00:01:13.986Z,28.12
2018-05-17T00:03:42.373Z,32.10
2018-05-17T00:06:10.778Z,36.57
2018-05-17T00:08:39.174Z,30.62
2018-05-17T00:11:07.610Z,29.83
2018-05-17T00:13:36.018Z,23.02
2018-05-17T00:16:05.178Z,20.65
2018-05-17T00:18:33.590Z,28.37
2018-05-17T00:21:01.978Z,28.13
2018-05-17T00:23:30.371Z,21.50
2018-05-17T00:25:58.762Z,20.77
2018-05-17T00:28:27.242Z,26.73
2018-05-17T00:30:55.636Z,24.30
2018-05-17T00:33:24.058Z,36.42
2018-05-17T00:35:52.506Z,27.02
2018-05-17T00:38:20.915Z,39.47
2018-05-17T00:40:50.062Z,36.17
2018-05-17T00:43:18.454Z,28.30
2018-05-17T00:45:46.850Z,28.98
2018-05-17T00:48:15.288Z,32.72
2018-05-17T00:50:43.797Z,32.95
2018-05-17T00:53:33.970Z,34.53
2018-05-17T00:56:02.398Z,27.62
2018-05-17T00:58:31.557Z,25.15
2018-05-17T01:00:59.963Z,25.50
2018-05-17T01:03:28.365Z,27.23
2018-05-17T01:05:57.532Z,24.10
2018-05-17T01:08:25.914Z,24.27
2018-05-17T01:10:54.317Z,33.10
2018-05-17T01:13:22.736Z,31.30
2018-05-17T01:15:51.179Z,31.60
2018-05-17T01:18:19.557Z,31.35
2018-05-17T01:20:47.955Z,28.33
2018-05-17T01:23:16.359Z,28.23
2018-05-17T01:25:45.561Z,26.12
2018-05-17T01:28:14.691Z,19.85
2018-05-17T01:30:43.097Z,25.80
2018-05-17T01:33:11.478Z,24.45
2018-05-17T01:35:40.115Z,24.27
2018-05-17T01:38:27.190Z,21.23
2018-05-17T01:40:56.359Z,31.83
2018-05-17T01:43:24.836Z,21.37
2018-05-17T01:45:53.221Z,25.65
2018-05-17T01:48:21.607Z,22.15
2018-05-17T01:50:49.997Z,19.15
2018-05-17T01:53:18.374Z,21.23
2018-05-17T01:55:46.845Z,21.67
2018-05-17T01:58:16.094Z,29.12
2018-05-17T02:00:44.489Z,21.73
2018-05-17T02:03:12.874Z,33.25
2018-05-17T02:05:41.277Z,31.95
2018-05-17T02:08:09.647Z,22.60
2018-05-17T02:10:38.019Z,31.12
2018-05-17T02:13:06.402Z,28.50
2018-05-17T02:15:34.777Z,38.13
2018-05-17T02:18:03.923Z,17.85
2018-05-17T02:20:33.066Z,21.20
2018-05-17T02:23:01.441Z,28.85
2018-05-17T02:25:29.870Z,30.52
2018-05-17T02:27:59.026Z,30.05
2018-05-17T02:30:27.413Z,32.85
2018-05-17T02:32:56.617Z,20.80
2018-05-17T02:35:24.998Z,20.80
2018-05-17T02:37:53.405Z,23.75
2018-05-17T02:40:21.789Z,26.23
2018-05-17T02:42:50.185Z,26.40
2018-05-17T02:45:18.566Z,22.25
2018-05-17T02:47:47.758Z,26.20
2018-05-17T02:50:16.154Z,28.25
2018-05-17T02:52:44.514Z,24.92
2018-05-17T02:55:13.675Z,27.35
2018-05-17T02:57:42.041Z,29.60
2018-05-17T03:00:11.218Z,24.73
2018-05-17T03:02:39.616Z,22.02
2018-05-17T03:05:08.745Z,29.83
2018-05-17T03:07:37.131Z,20.60
2018-05-17T03:10:05.535Z,25.58
2018-05-17T03:12:33.894Z,21.75
2018-05-17T03:15:02.357Z,33.60
2018-05-17T03:17:31.525Z,27.15
2018-05-17T03:19:59.893Z,18.33
2018-05-17T03:22:28.274Z,22.90
2018-05-17T03:24:56.658Z,32.05
2018-05-17T03:27:25.037Z,23.83
2018-05-17T03:29:53.544Z,30.62
2018-05-17T03:32:21.913Z,28.20
2018-05-17T03:34:50.294Z,30.83
2018-05-17T03:37:19.443Z,40.63
2018-05-17T03:39:48.595Z,21.08
2018-05-17T03:42:16.978Z,23.73
2018-05-17T03:44:45.409Z,24.60
2018-05-17T03:47:13.818Z,20.73
2018-05-17T03:49:42.197Z,29.90
2018-05-17T03:52:10.610Z,28.35
2018-05-17T03:54:38.987Z,24.95
2018-05-17T03:57:07.370Z,24.12
2018-05-17T03:59:35.889Z,29.87
2018-05-17T04:02:22.064Z,27.05
2018-05-17T04:05:08.963Z,30.33
2018-05-17T04:07:37.439Z,35.50
2018-05-17T04:10:05.825Z,28.42
2018-05-17T04:12:34.223Z,33.92
2018-05-17T04:15:02.673Z,46.78
2018-05-17T04:17:31.065Z,34.08
2018-05-17T04:19:59.446Z,32.13
2018-05-17T04:22:27.833Z,39.78
2018-05-17T04:24:56.213Z,35.13
2018-05-17T04:27:24.610Z,38.88
2018-05-17T04:29:52.986Z,36.13
2018-05-17T04:32:21.443Z,37.47
2018-05-17T04:34:49.837Z,44.33
2018-05-17T04:37:18.204Z,42.85
2018-05-17T04:39:46.599Z,36.45
2018-05-17T04:42:14.975Z,41.25
2018-05-17T04:44:43.365Z,49.10
2018-05-17T04:47:11.855Z,40.17
2018-05-17T04:49:40.146Z,36.20
2018-05-17T04:52:08.510Z,39.30
2018-05-17T04:54:36.910Z,38.72
2018-05-17T04:57:05.315Z,38.70
2018-05-17T04:59:33.702Z,40.47
2018-05-17T05:02:02.122Z,40.75
2018-05-17T05:04:31.266Z,38.28
2018-05-17T05:06:59.659Z,49.55
2018-05-17T05:09:28.132Z,41.95
2018-05-17T05:11:57.278Z,36.30
2018-05-17T05:14:26.449Z,40.58
2018-05-17T05:16:54.824Z,45.55
2018-05-17T05:19:23.230Z,39.50
2018-05-17T05:21:51.618Z,36.50
2018-05-17T05:24:20.010Z,37.55
2018-05-17T05:26:49.194Z,38.70
2018-05-17T05:29:17.597Z,45.12
2018-05-17T05:31:46.766Z,40.10
2018-05-17T05:34:15.207Z,31.50
2018-05-17T05:36:43.597Z,39.33
2018-05-17T05:39:12.011Z,37.60
2018-05-17T05:41:40.398Z,35.45
2018-05-17T05:44:08.779Z,37.63
2018-05-17T05:46:37.174Z,36.42
2018-05-17T05:49:05.575Z,37.90
2018-05-17T05:51:34.749Z,34.72
2018-05-17T05:54:03.148Z,33.75
2018-05-17T05:56:31.557Z,55.22
2018-05-17T05:58:59.951Z,45.78
2018-05-17T06:01:28.351Z,35.22
2018-05-17T06:03:56.736Z,40.53
2018-05-17T06:06:25.121Z,41.77
2018-05-17T06:08:53.544Z,36.80
2018-05-17T06:11:21.971Z,42.47
2018-05-17T06:13:50.379Z,53.67
2018-05-17T06:16:18.777Z,51.75
2018-05-17T06:18:47.182Z,45.30
2018-05-17T06:21:15.677Z,48.80
2018-05-17T06:23:44.884Z,52.92
2018-05-17T06:26:13.217Z,53.80
2018-05-17T06:28:41.631Z,63.10
2018-05-17T06:31:10.025Z,52.30
2018-05-17T06:33:39.214Z,60.67
2018-05-17T06:36:07.665Z,66.73
2018-05-17T06:38:36.026Z,51.85
2018-05-17T06:41:04.429Z,55.30
2018-05-17T06:43:32.830Z,54.17
2018-05-17T06:46:02.049Z,59.80
2018-05-17T06:48:30.437Z,49.08
2018-05-17T06:50:58.831Z,53.50
2018-05-17T06:53:28.002Z,54.33
2018-05-17T06:55:56.412Z,55.80
2018-05-17T06:58:24.809Z,48.23
2018-05-17T07:00:54.003Z,61.60
2018-05-17T07:03:22.397Z,49.40
2018-05-17T07:05:51.610Z,55.87
2018-05-17T07:08:20.039Z,51.60
2018-05-17T07:10:48.490Z,50.47
2018-05-17T07:13:16.942Z,52.20
2018-05-17T07:15:46.139Z,56.70
2018-05-17T07:18:14.725Z,50.20
2018-05-17T07:20:43.706Z,55.20
2018-05-17T07:23:12.101Z,51.23
2018-05-17T07:25:40.491Z,50.83
2018-05-17T07:28:09.706Z,45.57
2018-05-17T07:30:38.856Z,40.97
2018-05-17T07:33:07.274Z,45.07
2018-05-17T07:35:35.744Z,48.07
2018-05-17T07:38:04.131Z,47.77
2018-05-17T07:40:32.516Z,46.23
2018-05-17T07:43:00.988Z,39.00
2018-05-17T07:45:29.378Z,43.40
2018-05-17T07:47:57.759Z,39.30
2018-05-17T07:50:26.154Z,42.33
2018-05-17T07:52:54.570Z,40.20
2018-05-17T07:55:23.019Z,40.77
2018-05-17T07:57:51.419Z,40.20
2018-05-17T08:00:20.555Z,40.90
2018-05-17T08:02:48.944Z,34.87
2018-05-17T08:05:18.099Z,34.50
2018-05-17T08:07:46.478Z,27.33
2018-05-17T08:10:14.870Z,23.57
2018-05-17T08:12:44.031Z,20.70
2018-05-17T08:15:12.426Z,23.73
2018-05-17T08:17:40.813Z,28.77
2018-05-17T08:20:09.222Z,30.73
2018-05-17T08:22:37.606Z,27.83
2018-05-17T08:25:06.740Z,33.13
2018-05-17T08:27:35.122Z,30.63
2018-05-17T08:30:03.503Z,31.90
2018-05-17T08:32:31.878Z,29.40
2018-05-17T08:35:00.258Z,29.53
2018-05-17T08:37:28.650Z,23.20
2018-05-17T08:39:57.044Z,22.30
2018-05-17T08:42:25.458Z,22.30
2018-05-17T08:44:53.861Z,21.60
2018-05-17T08:47:22.285Z,20.17
2018-05-17T08:49:50.650Z,19.20
2018-05-17T08:52:20.179Z,22.17
2018-05-17T08:54:48.554Z,21.63
2018-05-17T08:57:17.029Z,23.30
2018-05-17T08:59:45.664Z,15.97
2018-05-17T09:02:14.220Z,20.40
2018-05-17T09:04:42.618Z,27.17
2018-05-17T09:07:10.994Z,16.57
2018-05-17T09:09:39.414Z,19.40
2018-05-17T09:12:07.786Z,18.27
2018-05-17T09:14:36.389Z,18.50
2018-05-17T09:17:04.852Z,22.57
2018-05-17T09:19:33.379Z,25.07
2018-05-17T09:22:02.538Z,22.60
2018-05-17T09:24:30.917Z,23.27
2018-05-17T09:26:59.310Z,25.90
2018-05-17T09:29:27.924Z,22.40
2018-05-17T09:31:56.327Z,23.87
2018-05-17T09:34:25.519Z,23.20
2018-05-17T09:36:54.685Z,23.50
2018-05-17T09:39:23.061Z,25.10
2018-05-17T09:41:51.462Z,34.37
2018-05-17T09:44:20.013Z,25.73
2018-05-17T09:46:48.467Z,25.17
2018-05-17T09:49:17.641Z,22.50
2018-05-17T09:51:46.023Z,18.57
2018-05-17T09:54:15.198Z,22.80
2018-05-17T09:56:43.634Z,19.57
2018-05-17T09:59:12.769Z,22.93
2018-05-17T10:01:41.229Z,21.67
2018-05-17T10:04:10.385Z,15.47
2018-05-17T10:06:38.756Z,18.20
2018-05-17T10:09:07.160Z,14.00
2018-05-17T10:11:35.529Z,21.57
2018-05-17T10:14:03.917Z,14.20
2018-05-17T10:16:32.567Z,18.23
2018-05-17T10:19:00.973Z,18.60
2018-05-17T10:21:29.397Z,18.00
2018-05-17T10:23:57.970Z,18.33
2018-05-17T10:26:26.348Z,19.40
2018-05-17T10:28:55.500Z,17.00
2018-05-17T10:31:23.882Z,16.00
2018-05-17T10:33:52.262Z,18.40
2018-05-17T10:36:20.672Z,14.83
2018-05-17T10:38:49.071Z,18.80
2018-05-17T10:41:17.539Z,13.57
2018-05-17T10:43:45.924Z,19.00
2018-05-17T10:46:14.323Z,23.23
2018-05-17T10:48:42.690Z,15.80
2018-05-17T10:51:11.081Z,19.10
2018-05-17T10:53:39.458Z,19.93
2018-05-17T10:56:07.849Z,16.67
2018-05-17T10:58:36.431Z,17.17
2018-05-17T11:01:04.825Z,12.03
2018-05-17T11:03:33.337Z,18.50
2018-05-17T11:06:01.719Z,20.17
2018-05-17T11:08:30.882Z,16.50
2018-05-17T11:10:59.258Z,17.10
2018-05-17T11:13:27.762Z,15.70
2018-05-17T11:15:56.142Z,34.07
2018-05-17T11:18:24.549Z,16.70
2018-05-17T11:20:52.924Z,19.87
2018-05-17T11:23:21.322Z,19.43
2018-05-17T11:25:49.740Z,18.20
2018-05-17T11:28:18.836Z,21.67
2018-05-17T11:30:47.331Z,21.07
2018-05-17T11:33:15.921Z,17.33
2018-05-17T11:35:44.306Z,15.13
2018-05-17T11:38:12.709Z,16.40
2018-05-17T11:40:41.110Z,20.93
2018-05-17T11:43:09.695Z,13.33
2018-05-17T11:45:38.082Z,16.70
2018-05-17T11:48:06.474Z,22.33
2018-05-17T11:50:34.865Z,16.10
2018-05-17T11:53:03.570Z,20.23
2018-05-17T11:55:32.718Z,16.70
2018-05-17T11:58:01.093Z,14.90
2018-05-17T12:00:29.600Z,26.90
2018-05-17T12:02:58.258Z,12.87
2018-05-17T12:05:26.646Z,18.67
2018-05-17T12:07:55.029Z,20.00
2018-05-17T12:10:23.488Z,13.43
2018-05-17T12:12:52.658Z,15.60
2018-05-17T12:15:21.046Z,18.23
2018-05-17T12:17:49.431Z,20.93
2018-05-17T12:20:17.861Z,15.70
2018-05-17T12:22:46.238Z,22.10
2018-05-17T12:25:14.631Z,19.80
2018-05-17T12:27:43.913Z,19.73
2018-05-17T12:30:12.341Z,14.47
2018-05-17T12:32:40.748Z,15.47
2018-05-17T12:35:09.286Z,18.10
2018-05-17T12:37:37.667Z,19.50
2018-05-17T12:40:06.174Z,22.63
2018-05-17T12:42:34.554Z,18.00
2018-05-17T12:45:03.003Z,14.50
2018-05-17T12:47:32.186Z,21.77
2018-05-17T12:50:01.447Z,14.97
2018-05-17T12:52:29.918Z,18.17
2018-05-17T12:54:58.369Z,16.90
2018-05-17T12:57:27.536Z,21.37
2018-05-17T12:59:55.981Z,20.13
2018-05-17T13:02:24.425Z,16.53
2018-05-17T13:04:52.813Z,15.43
2018-05-17T13:07:21.957Z,15.53
2018-05-17T13:09:50.342Z,14.20
2018-05-17T13:12:18.718Z,17.17
2018-05-17T13:14:47.117Z,21.10
2018-05-17T13:17:15.522Z,13.13
2018-05-17T13:19:44.002Z,16.60
2018-05-17T13:22:12.688Z,16.00
2018-05-17T13:24:40.823Z,16.90
2018-05-17T13:27:09.983Z,17.63
2018-05-17T13:29:38.379Z,14.27
2018-05-17T13:32:06.762Z,18.17
2018-05-17T13:34:35.202Z,13.90
2018-05-17T13:37:03.600Z,16.60
2018-05-17T13:39:31.979Z,15.80
2018-05-17T13:42:00.382Z,14.30
2018-05-17T13:44:28.771Z,16.57
2018-05-17T13:46:57.162Z,15.60
2018-05-17T13:49:25.545Z,21.87
2018-05-17T13:51:54.717Z,16.73
2018-05-17T13:54:23.281Z,15.50
2018-05-17T13:56:51.675Z,19.10
2018-05-17T13:59:20.055Z,14.60
2018-05-17T14:01:48.435Z,15.90
2018-05-17T14:04:17.599Z,15.10
2018-05-17T14:06:46.775Z,14.90
2018-05-17T14:09:15.261Z,22.07
2018-05-17T14:11:43.650Z,19.50
2018-05-17T14:14:12.066Z,19.00
2018-05-17T14:16:40.450Z,17.67
2018-05-17T14:19:09.624Z,21.33
2018-05-17T14:21:38.009Z,11.40
2018-05-17T14:24:07.164Z,20.40
2018-05-17T14:26:35.557Z,15.50
2018-05-17T14:29:03.949Z,15.37
2018-05-17T14:31:32.333Z,14.43
2018-05-17T14:34:00.772Z,15.07
2018-05-17T14:36:29.231Z,13.43
2018-05-17T14:38:58.382Z,17.77
2018-05-17T14:41:26.802Z,17.13
2018-05-17T14:43:55.204Z,12.37
2018-05-17T14:46:23.752Z,15.40
2018-05-17T14:48:52.289Z,13.83
2018-05-17T14:51:21.438Z,13.20
2018-05-17T14:53:49.903Z,15.97
2018-05-17T14:56:18.306Z,16.20
2018-05-17T14:58:46.684Z,12.60
2018-05-17T15:01:15.159Z,14.07
2018-05-17T15:03:43.505Z,17.13
2018-05-17T15:06:12.652Z,9.63
2018-05-17T15:08:41.088Z,11.37
2018-05-17T15:11:14.736Z,12.17
2018-05-17T15:13:38.770Z,16.30
2018-05-17T15:16:08.025Z,16.20
2018-05-17T15:18:36.567Z,14.00
2018-05-17T15:21:05.734Z,15.40
2018-05-17T15:23:34.117Z,11.83
2018-05-17T15:26:02.546Z,11.47
2018-05-17T15:28:31.727Z,12.90
2018-05-17T15:31:00.913Z,16.37
2018-05-17T15:33:30.074Z,12.80
2018-05-17T15:35:58.454Z,14.37
2018-05-17T15:38:26.833Z,13.93
2018-05-17T15:40:55.235Z,16.73
2018-05-17T15:43:23.654Z,11.57
2018-05-17T15:45:52.079Z,14.50
2018-05-17T15:48:20.544Z,12.83
2018-05-17T15:50:48.933Z,10.83
2018-05-17T15:53:18.843Z,11.70
2018-05-17T15:55:48.046Z,16.90
2018-05-17T15:58:17.215Z,20.77
2018-05-17T16:00:45.616Z,12.10
2018-05-17T16:03:14.014Z,12.60
2018-05-17T16:05:43.264Z,16.33
2018-05-17T16:08:11.682Z,16.07
2018-05-17T16:10:40.335Z,12.63
2018-05-17T16:13:08.769Z,14.03
2018-05-17T16:15:37.964Z,13.70
2018-05-17T16:18:06.354Z,16.30
2018-05-17T16:20:35.484Z,11.30
2018-05-17T16:23:03.889Z,16.57
2018-05-17T16:25:32.271Z,18.93
2018-05-17T16:28:00.654Z,17.33
2018-05-17T16:30:29.070Z,21.67
2018-05-17T16:32:57.668Z,21.17
2018-05-17T16:35:26.185Z,17.13
2018-05-17T16:37:54.573Z,19.90
2018-05-17T16:40:22.965Z,15.23
2018-05-17T16:42:51.605Z,20.00
2018-05-17T16:45:19.986Z,15.63
2018-05-17T16:47:49.157Z,15.30
2018-05-17T16:50:17.572Z,19.77
2018-05-17T16:52:46.800Z,18.40
2018-05-17T16:55:15.156Z,12.30
2018-05-17T16:57:43.542Z,13.63
2018-05-17T17:00:11.940Z,21.37
2018-05-17T17:02:41.287Z,18.03
2018-05-17T17:05:09.846Z,20.50
2018-05-17T17:07:38.967Z,11.13
2018-05-17T17:10:07.355Z,19.23
2018-05-17T17:12:35.758Z,20.03
2018-05-17T17:15:04.162Z,21.50
2018-05-17T17:17:34.045Z,26.03
2018-05-17T17:20:02.426Z,18.43
2018-05-17T17:22:30.809Z,14.10
2018-05-17T17:24:59.197Z,15.50
2018-05-17T17:27:27.760Z,26.30
2018-05-17T17:29:56.373Z,22.93
2018-05-17T17:32:24.766Z,17.13
2018-05-17T17:34:53.174Z,18.13
2018-05-17T17:37:21.569Z,19.57
2018-05-17T17:39:49.943Z,18.10
2018-05-17T17:42:19.861Z,19.30
2018-05-17T17:44:48.299Z,16.53
2018-05-17T17:47:16.707Z,23.07
2018-05-17T17:49:45.102Z,16.57
2018-05-17T17:52:13.526Z,21.80
2018-05-17T17:54:41.903Z,25.63
2018-05-17T17:57:10.510Z,20.03
2018-05-17T17:59:40.401Z,34.03
2018-05-17T18:02:09.584Z,16.93
2018-05-17T18:04:39.499Z,20.30
2018-05-17T18:07:07.930Z,14.70
2018-05-17T18:09:36.321Z,19.30
2018-05-17T18:12:04.813Z,23.97
2018-05-17T18:14:33.213Z,15.10
2018-05-17T18:17:01.618Z,21.63
2018-05-17T18:19:30.021Z,20.87
2018-05-17T18:21:59.200Z,21.30
2018-05-17T18:24:27.625Z,18.07
2018-05-17T18:26:56.019Z,18.00
2018-05-17T18:29:24.481Z,20.60
2018-05-17T18:31:53.641Z,20.43
2018-05-17T18:34:22.097Z,21.77
2018-05-17T18:36:50.533Z,21.97
2018-05-17T18:39:18.982Z,22.80
2018-05-17T18:41:48.201Z,17.83
2018-05-17T18:44:16.614Z,18.83
2018-05-17T18:46:45.848Z,17.47
2018-05-17T18:49:14.295Z,16.00
2018-05-17T18:51:44.161Z,15.33
2018-05-17T18:54:12.578Z,13.40
2018-05-17T18:56:40.974Z,18.83
2018-05-17T18:59:09.434Z,20.10
2018-05-17T19:01:37.876Z,18.27
2018-05-17T19:04:07.045Z,19.17
2018-05-17T19:06:35.436Z,17.67
2018-05-17T19:09:05.386Z,17.77
2018-05-17T19:11:33.782Z,25.47
2018-05-17T19:14:02.251Z,15.63
2018-05-17T19:16:30.731Z,28.57
2018-05-17T19:18:59.226Z,18.17
2018-05-17T19:21:27.629Z,22.70
2018-05-17T19:23:56.024Z,20.80
2018-05-17T19:26:24.475Z,20.10
2018-05-17T19:28:53.478Z,14.97
2018-05-17T19:31:21.864Z,22.30
2018-05-17T19:33:50.236Z,18.67
2018-05-17T19:36:19.381Z,20.93
2018-05-17T19:38:47.790Z,19.03
2018-05-17T19:41:16.962Z,13.50
2018-05-17T19:43:45.347Z,20.37
2018-05-17T19:46:13.749Z,24.13
2018-05-17T19:48:42.140Z,21.60
2018-05-17T19:51:10.626Z,25.30
2018-05-17T19:53:39.773Z,19.73
2018-05-17T19:56:08.225Z,28.97
2018-05-17T19:58:37.370Z,20.63
2018-05-17T20:01:05.837Z,23.20
2018-05-17T20:03:34.246Z,20.23
2018-05-17T20:06:02.698Z,17.53
2018-05-17T20:08:31.080Z,15.33
2018-05-17T20:10:59.459Z,28.43
2018-05-17T20:13:27.858Z,14.40
2018-05-17T20:15:56.256Z,21.00
2018-05-17T20:18:24.666Z,20.00
2018-05-17T20:20:53.066Z,18.17
2018-05-17T20:23:21.686Z,25.43
2018-05-17T20:25:50.169Z,21.77
2018-05-17T20:28:18.642Z,29.00
2018-05-17T20:30:47.010Z,21.70
2018-05-17T20:33:16.211Z,20.70
2018-05-17T20:35:44.817Z,17.00
2018-05-17T20:38:13.226Z,18.87
2018-05-17T20:40:41.800Z,25.20
2018-05-17T20:43:10.196Z,29.30
2018-05-17T20:45:38.606Z,23.13
2018-05-17T20:48:07.086Z,27.80
2018-05-17T20:50:35.491Z,26.17
2018-05-17T20:53:04.651Z,23.37
2018-05-17T20:55:33.065Z,18.42
2018-05-17T20:58:01.479Z,19.03
2018-05-17T21:00:30.723Z,24.03
2018-05-17T21:02:59.077Z,26.37
2018-05-17T21:05:27.503Z,34.75
2018-05-17T21:07:55.969Z,33.03
2018-05-17T21:10:24.376Z,16.25
2018-05-17T21:12:52.819Z,29.47
2018-05-17T21:15:22.025Z,17.33
2018-05-17T21:17:50.440Z,22.40
2018-05-17T21:20:19.825Z,16.42
2018-05-17T21:22:48.237Z,24.33
2018-05-17T21:25:16.655Z,28.30
2018-05-17T21:27:45.844Z,27.77
2018-05-17T21:30:15.021Z,17.10
2018-05-17T21:32:43.425Z,16.12
2018-05-17T21:35:11.836Z,21.77
2018-05-17T21:37:40.307Z,21.10
2018-05-17T21:40:09.579Z,22.48
2018-05-17T21:42:38.769Z,21.48
2018-05-17T21:45:07.193Z,22.40
2018-05-17T21:47:36.370Z,22.23
2018-05-17T21:50:04.779Z,24.85
2018-05-17T21:52:34.114Z,24.95
2018-05-17T21:55:02.550Z,25.05
2018-05-17T21:57:30.957Z,20.40
2018-05-17T22:00:00.118Z,14.00
2018-05-17T22:02:28.512Z,23.60
2018-05-17T22:04:57.667Z,17.58
2018-05-17T22:07:26.080Z,26.80
2018-05-17T22:09:54.486Z,26.73
2018-05-17T22:12:22.877Z,23.38
2018-05-17T22:14:51.301Z,29.83
2018-05-17T22:17:19.702Z,27.73
2018-05-17T22:19:48.169Z,23.77
2018-05-17T22:22:16.567Z,18.33
2018-05-17T22:24:44.958Z,17.05
2018-05-17T22:27:13.342Z,25.45
2018-05-17T22:29:41.962Z,24.30
2018-05-17T22:32:11.130Z,17.65
2018-05-17T22:34:40.069Z,29.75
2018-05-17T22:37:09.638Z,21.92
2018-05-17T22:39:38.040Z,23.42
2018-05-17T22:42:06.429Z,23.05
2018-05-17T22:44:34.829Z,30.33
2018-05-17T22:47:05.721Z,24.10
2018-05-17T22:49:34.221Z,34.08
2018-05-17T22:52:02.659Z,28.67
2018-05-17T22:54:31.039Z,22.48
2018-05-17T22:57:12.110Z,16.73
2018-05-17T22:59:41.245Z,22.45
2018-05-17T23:02:09.656Z,21.52
2018-05-17T23:04:38.013Z,21.17
2018-05-17T23:07:06.405Z,28.23
2018-05-17T23:09:34.813Z,15.73
2018-05-17T23:12:03.213Z,18.67
2018-05-17T23:14:32.368Z,29.40
2018-05-17T23:17:00.783Z,21.48
2018-05-17T23:19:29.155Z,22.25
2018-05-17T23:21:57.530Z,19.90
2018-05-17T23:24:25.897Z,28.08
2018-05-17T23:26:54.273Z,18.95
2018-05-17T23:29:22.652Z,24.02
2018-05-17T23:31:51.038Z,29.10
2018-05-17T23:34:19.423Z,21.17
2018-05-17T23:36:47.798Z,24.12
2018-05-17T23:39:16.181Z,23.80
2018-05-17T23:41:46.439Z,23.48
2018-05-17T23:44:14.831Z,29.50
2018-05-17T23:46:43.292Z,20.45
2018-05-17T23:49:11.697Z,24.85
2018-05-17T23:51:40.090Z,21.52
2018-05-17T23:54:08.468Z,19.23
2018-05-17T23:56:36.841Z,22.65
2018-05-17T23:59:05.232Z,15.02
